Sandakan, Malaysia
Current Conditions -  °F | °C
As of 2:00 PM on Wednesday 22 Oct 2014 (Local Time) from WBKS Reporting Station
Broken Clouds Broken Clouds  
Wind Chill: 88°   Ceiling: 30000
Heat Index: 98°   Visibility: 6mi
Dew Point: 75°   Wind: 9mph
Humidity: 66%   Direction: 70°ENE
Pressure: 29.8"   Gusts: NA
Location:  5.85°N, 118.11°E
Report Text: WBKS 220600Z 07008KT 040V110 9999 FEW016 BKN300 31/24 Q1009
Loading
Personal Weather Stations






























Interactive Weather Map
Tropical Storm Tracking
New forecast layout! Learn more

10-Day Weather Forecast

Advertisements
Track Severe Weather on mobile